FNLU/LAD METAR and TAF weather

Enter ICAO airport designator
Station Type Date Time Source
FNLU METAR 2018/01/19 17:00 UTC NOAA

FNLU 191700Z 24008KT 9999 SCT020 BKN090 28/22 Q1007


Station Type Date Time Source
FNLU Decoded METAR 2018/01/19 17:00 UTC NOAA

Luanda, Angola (FNLU) 08-51S 013-14E 70M
Jan 19, 2018 - 12:00 PM EST / 2018.01.19 1700 UTC
Wind: from the WSW (240 degrees) at 9 MPH (8 KT):0
Visibility: greater than 7 mile(s):0
Sky conditions: mostly cloudy
Temperature: 82 F (28 C)
Dew Point: 71 F (22 C)
Relative Humidity: 69%
Pressure (altimeter): 29.74 in. Hg (1007 hPa)
ob: FNLU 191700Z 24008KT 9999 SCT020 BKN090 28/22 Q1007
cycle: 17

Station Type Date Time Source
FNLU TAF 2018/01/19 18:57 UTC NOAA

TAF TAF FNLU 191540Z 1918/2024 24006KT 9000 FEW020 SCT080
BECMG 1920/1922 00000KT 8000 -RA FEW023 BKN090 PROB30
TEMPO 2003/2007 VRB02KT 6000 -DZ FEW018 BKN070
BECMG 2010/2012 27010KT 9999 SCT020 BKN100


Example: see airport list